sensor_id;sensor_type;location;lat;lon;timestamp;pressure;altitude;pressure_sealevel;temperature;humidity
14253;BME280;7210;51.502;10.722;2023-06-19T00:00:42;99328.44;;;18.29;90.59
14253;BME280;7210;51.502;10.722;2023-06-19T00:03:11;99333.09;;;18.19;91.01
14253;BME280;7210;51.502;10.722;2023-06-19T00:05:38;99335.06;;;18.08;91.36
14253;BME280;7210;51.502;10.722;2023-06-19T00:08:05;99336.75;;;17.99;91.64
14253;BME280;7210;51.502;10.722;2023-06-19T00:10:32;99330.69;;;17.89;91.89
14253;BME280;7210;51.502;10.722;2023-06-19T00:13:00;99336.34;;;17.87;92.35
14253;BME280;7210;51.502;10.722;2023-06-19T00:15:27;99335.28;;;17.83;92.58
14253;BME280;7210;51.502;10.722;2023-06-19T00:17:55;99324.81;;;17.87;92.63
14253;BME280;7210;51.502;10.722;2023-06-19T00:20:25;99333.66;;;17.87;92.99
14253;BME280;7210;51.502;10.722;2023-06-19T00:22:53;99325.06;;;17.90;93.06
14253;BME280;7210;51.502;10.722;2023-06-19T00:25:20;99319.16;;;17.93;93.13
14253;BME280;7210;51.502;10.722;2023-06-19T00:27:47;99320.53;;;17.91;93.04
14253;BME280;7210;51.502;10.722;2023-06-19T00:30:15;99317.06;;;17.85;92.89
14253;BME280;7210;51.502;10.722;2023-06-19T00:32:42;99312.63;;;17.76;92.72
14253;BME280;7210;51.502;10.722;2023-06-19T00:35:18;99313.50;;;17.66;92.98
14253;BME280;7210;51.502;10.722;2023-06-19T00:37:49;99313.75;;;17.65;93.15
14253;BME280;7210;51.502;10.722;2023-06-19T00:40:26;99310.84;;;17.61;93.47
14253;BME280;7210;51.502;10.722;2023-06-19T00:42:54;99308.47;;;17.60;93.56
14253;BME280;7210;51.502;10.722;2023-06-19T00:45:21;99298.56;;;17.60;93.77
14253;BME280;7210;51.502;10.722;2023-06-19T00:47:50;99303.91;;;17.60;93.97
14253;BME280;7210;51.502;10.722;2023-06-19T00:50:17;99308.22;;;17.56;94.32
14253;BME280;7210;51.502;10.722;2023-06-19T00:52:45;99305.59;;;17.51;94.62
14253;BME280;7210;51.502;10.722;2023-06-19T00:55:16;99302.41;;;17.49;94.56
14253;BME280;7210;51.502;10.722;2023-06-19T00:57:45;99296.53;;;17.47;94.63
14253;BME280;7210;51.502;10.722;2023-06-19T01:00:13;99292.81;;;17.43;94.79
14253;BME280;7210;51.502;10.722;2023-06-19T01:02:41;99297.66;;;17.36;94.95
14253;BME280;7210;51.502;10.722;2023-06-19T01:05:08;99279.75;;;17.32;95.45
14253;BME280;7210;51.502;10.722;2023-06-19T01:07:43;99282.16;;;17.33;95.69
14253;BME280;7210;51.502;10.722;2023-06-19T01:10:19;99268.50;;;17.35;95.87
14253;BME280;7210;51.502;10.722;2023-06-19T01:12:59;99258.13;;;17.33;96.01
14253;BME280;7210;51.502;10.722;2023-06-19T01:15:28;99265.84;;;17.40;96.11
14253;BME280;7210;51.502;10.722;2023-06-19T01:17:58;99254.63;;;17.38;96.11
14253;BME280;7210;51.502;10.722;2023-06-19T01:20:28;99242.88;;;17.39;96.18
14253;BME280;7210;51.502;10.722;2023-06-19T01:23:07;99226.56;;;17.40;96.09
14253;BME280;7210;51.502;10.722;2023-06-19T01:25:35;99226.50;;;17.45;95.77
14253;BME280;7210;51.502;10.722;2023-06-19T01:28:02;99217.16;;;17.43;95.51
14253;BME280;7210;51.502;10.722;2023-06-19T01:30:34;99213.19;;;17.40;95.08
14253;BME280;7210;51.502;10.722;2023-06-19T01:33:14;99207.09;;;17.30;94.63
14253;BME280;7210;51.502;10.722;2023-06-19T01:35:45;99199.34;;;17.28;94.24
14253;BME280;7210;51.502;10.722;2023-06-19T01:38:16;99206.28;;;17.29;93.74
14253;BME280;7210;51.502;10.722;2023-06-19T01:40:44;99202.28;;;17.27;93.74
14253;BME280;7210;51.502;10.722;2023-06-19T01:43:12;99206.84;;;17.26;93.77
14253;BME280;7210;51.502;10.722;2023-06-19T01:45:40;99202.03;;;17.23;93.93
14253;BME280;7210;51.502;10.722;2023-06-19T01:48:08;99206.38;;;17.19;93.95
14253;BME280;7210;51.502;10.722;2023-06-19T01:50:38;99207.47;;;17.13;94.38
14253;BME280;7210;51.502;10.722;2023-06-19T01:53:05;99217.63;;;17.16;94.58
14253;BME280;7210;51.502;10.722;2023-06-19T01:55:34;99212.28;;;17.16;94.75
14253;BME280;7210;51.502;10.722;2023-06-19T01:58:01;99226.63;;;17.25;94.95
14253;BME280;7210;51.502;10.722;2023-06-19T02:00:29;99236.75;;;17.28;94.89
14253;BME280;7210;51.502;10.722;2023-06-19T02:03:01;99229.25;;;17.30;94.90
14253;BME280;7210;51.502;10.722;2023-06-19T02:05:28;99245.78;;;17.42;95.07
14253;BME280;7210;51.502;10.722;2023-06-19T02:07:55;99250.25;;;17.52;94.92
14253;BME280;7210;51.502;10.722;2023-06-19T02:13:29;99235.59;;;17.44;95.19
14253;BME280;7210;51.502;10.722;2023-06-19T02:15:56;99240.94;;;17.44;95.39
14253;BME280;7210;51.502;10.722;2023-06-19T02:18:27;99243.38;;;17.41;95.34
14253;BME280;7210;51.502;10.722;2023-06-19T02:20:54;99241.50;;;17.41;95.36
14253;BME280;7210;51.502;10.722;2023-06-19T02:23:22;99236.69;;;17.38;95.23
14253;BME280;7210;51.502;10.722;2023-06-19T02:25:49;99232.97;;;17.34;95.16
14253;BME280;7210;51.502;10.722;2023-06-19T02:28:17;99248.22;;;17.39;95.28
14253;BME280;7210;51.502;10.722;2023-06-19T02:30:45;99233.75;;;17.40;95.21
14253;BME280;7210;51.502;10.722;2023-06-19T02:33:13;99239.34;;;17.43;95.15
14253;BME280;7210;51.502;10.722;2023-06-19T02:35:40;99226.50;;;17.45;95.00
14253;BME280;7210;51.502;10.722;2023-06-19T02:38:07;99235.50;;;17.54;95.02
14253;BME280;7210;51.502;10.722;2023-06-19T02:40:34;99236.56;;;17.58;95.15
14253;BME280;7210;51.502;10.722;2023-06-19T02:43:01;99244.31;;;17.60;95.55
14253;BME280;7210;51.502;10.722;2023-06-19T02:45:28;99249.94;;;17.53;96.01
14253;BME280;7210;51.502;10.722;2023-06-19T02:48:04;99246.50;;;17.53;96.19
14253;BME280;7210;51.502;10.722;2023-06-19T02:50:32;99245.19;;;17.50;96.34
14253;BME280;7210;51.502;10.722;2023-06-19T02:53:00;99242.84;;;17.44;96.63
14253;BME280;7210;51.502;10.722;2023-06-19T02:55:27;99239.34;;;17.43;96.82
14253;BME280;7210;51.502;10.722;2023-06-19T02:57:56;99241.22;;;17.43;97.09
14253;BME280;7210;51.502;10.722;2023-06-19T03:00:23;99230.53;;;17.43;97.01
14253;BME280;7210;51.502;10.722;2023-06-19T03:02:50;99227.59;;;17.39;97.16
14253;BME280;7210;51.502;10.722;2023-06-19T03:05:19;99227.09;;;17.37;97.20
14253;BME280;7210;51.502;10.722;2023-06-19T03:07:46;99227.09;;;17.37;97.64
14253;BME280;7210;51.502;10.722;2023-06-19T03:10:13;99225.75;;;17.35;97.92
14253;BME280;7210;51.502;10.722;2023-06-19T03:12:41;99232.94;;;17.39;98.02
14253;BME280;7210;51.502;10.722;2023-06-19T03:15:09;99221.44;;;17.44;98.14
14253;BME280;7210;51.502;10.722;2023-06-19T03:17:40;99227.53;;;17.49;98.22
14253;BME280;7210;51.502;10.722;2023-06-19T03:20:11;99218.69;;;17.54;98.13
14253;BME280;7210;51.502;10.722;2023-06-19T03:22:45;99222.34;;;17.63;98.02
14253;BME280;7210;51.502;10.722;2023-06-19T03:25:15;99223.59;;;17.70;97.61
14253;BME280;7210;51.502;10.722;2023-06-19T03:27:42;99217.69;;;17.73;97.27
14253;BME280;7210;51.502;10.722;2023-06-19T03:30:10;99207.00;;;17.73;96.98
14253;BME280;7210;51.502;10.722;2023-06-19T03:32:40;99203.25;;;17.74;96.95
14253;BME280;7210;51.502;10.722;2023-06-19T03:35:15;99209.84;;;17.82;96.58
14253;BME280;7210;51.502;10.722;2023-06-19T03:37:45;99211.16;;;17.84;96.38
14253;BME280;7210;51.502;10.722;2023-06-19T03:40:14;99206.34;;;17.86;95.75
14253;BME280;7210;51.502;10.722;2023-06-19T03:42:44;99204.97;;;17.89;95.73
14253;BME280;7210;51.502;10.722;2023-06-19T03:45:14;99210.53;;;17.92;95.39
14253;BME280;7210;51.502;10.722;2023-06-19T03:47:41;99208.84;;;18.01;95.18
14253;BME280;7210;51.502;10.722;2023-06-19T03:50:09;99202.44;;;18.02;94.72
14253;BME280;7210;51.502;10.722;2023-06-19T03:52:36;99211.81;;;18.00;94.67
14253;BME280;7210;51.502;10.722;2023-06-19T03:55:07;99231.31;;;18.00;94.78
14253;BME280;7210;51.502;10.722;2023-06-19T03:57:35;99233.91;;;18.10;94.81
14253;BME280;7210;51.502;10.722;2023-06-19T04:00:03;99242.81;;;18.06;94.94
14253;BME280;7210;51.502;10.722;2023-06-19T04:02:38;99231.28;;;18.05;95.19
14253;BME280;7210;51.502;10.722;2023-06-19T04:05:06;99239.28;;;18.10;95.26
14253;BME280;7210;51.502;10.722;2023-06-19T04:07:38;99246.09;;;18.21;95.37
14253;BME280;7210;51.502;10.722;2023-06-19T04:10:08;99259.75;;;18.20;95.47
14253;BME280;7210;51.502;10.722;2023-06-19T04:12:36;99261.69;;;18.14;95.55
14253;BME280;7210;51.502;10.722;2023-06-19T04:15:05;99260.84;;;18.19;95.48
14253;BME280;7210;51.502;10.722;2023-06-19T04:17:33;99252.50;;;18.25;94.99
14253;BME280;7210;51.502;10.722;2023-06-19T04:20:00;99250.88;;;18.24;94.65
14253;BME280;7210;51.502;10.722;2023-06-19T04:22:27;99253.13;;;18.17;94.92
14253;BME280;7210;51.502;10.722;2023-06-19T04:24:55;99259.09;;;18.09;95.74
14253;BME280;7210;51.502;10.722;2023-06-19T04:27:23;99271.94;;;18.07;96.33
14253;BME280;7210;51.502;10.722;2023-06-19T04:29:51;99270.91;;;18.03;96.88
14253;BME280;7210;51.502;10.722;2023-06-19T04:32:18;99261.75;;;18.09;97.29
14253;BME280;7210;51.502;10.722;2023-06-19T04:34:46;99277.28;;;18.07;97.94
14253;BME280;7210;51.502;10.722;2023-06-19T04:37:13;99278.88;;;18.08;98.09
14253;BME280;7210;51.502;10.722;2023-06-19T04:39:44;99278.47;;;17.96;97.83
14253;BME280;7210;51.502;10.722;2023-06-19T04:42:13;99263.03;;;17.88;98.30
14253;BME280;7210;51.502;10.722;2023-06-19T04:44:47;99259.28;;;17.89;98.34
14253;BME280;7210;51.502;10.722;2023-06-19T04:47:22;99257.09;;;17.91;98.54
14253;BME280;7210;51.502;10.722;2023-06-19T04:49:49;99258.09;;;18.00;98.91
14253;BME280;7210;51.502;10.722;2023-06-19T04:52:17;99260.22;;;18.03;99.03
14253;BME280;7210;51.502;10.722;2023-06-19T04:54:44;99272.28;;;18.01;99.67
14253;BME280;7210;51.502;10.722;2023-06-19T04:57:14;99276.03;;;18.00;100.00
14253;BME280;7210;51.502;10.722;2023-06-19T04:59:42;99275.78;;;17.96;100.00
14253;BME280;7210;51.502;10.722;2023-06-19T05:02:11;99269.63;;;17.96;100.00
14253;BME280;7210;51.502;10.722;2023-06-19T05:04:38;99279.44;;;18.05;100.00
14253;BME280;7210;51.502;10.722;2023-06-19T05:07:08;99266.56;;;18.07;100.00
14253;BME280;7210;51.502;10.722;2023-06-19T05:09:36;99264.97;;;18.06;100.00
14253;BME280;7210;51.502;10.722;2023-06-19T05:12:04;99258.28;;;18.09;100.00
14253;BME280;7210;51.502;10.722;2023-06-19T05:14:38;99267.91;;;18.10;100.00
14253;BME280;7210;51.502;10.722;2023-06-19T05:17:05;99268.75;;;18.05;100.00
14253;BME280;7210;51.502;10.722;2023-06-19T05:19:36;99274.38;;;18.04;100.00
14253;BME280;7210;51.502;10.722;2023-06-19T05:22:04;99275.78;;;17.96;100.00
14253;BME280;7210;51.502;10.722;2023-06-19T05:24:32;99285.13;;;17.99;100.00
14253;BME280;7210;51.502;10.722;2023-06-19T05:27:02;99289.06;;;18.06;100.00
14253;BME280;7210;51.502;10.722;2023-06-19T05:29:29;99288.91;;;17.98;100.00
14253;BME280;7210;51.502;10.722;2023-06-19T05:31:56;99293.69;;;18.01;100.00
14253;BME280;7210;51.502;10.722;2023-06-19T05:34:24;99287.84;;;17.94;100.00
14253;BME280;7210;51.502;10.722;2023-06-19T05:36:57;99281.16;;;17.96;100.00
14253;BME280;7210;51.502;10.722;2023-06-19T05:39:26;99276.75;;;18.10;100.00
14253;BME280;7210;51.502;10.722;2023-06-19T05:42:08;99271.78;;;18.22;100.00
14253;BME280;7210;51.502;10.722;2023-06-19T05:44:35;99265.84;;;18.30;100.00
14253;BME280;7210;51.502;10.722;2023-06-19T05:47:08;99280.19;;;18.39;100.00
14253;BME280;7210;51.502;10.722;2023-06-19T05:49:35;99269.25;;;18.36;100.00
14253;BME280;7210;51.502;10.722;2023-06-19T05:52:05;99268.47;;;18.35;100.00
14253;BME280;7210;51.502;10.722;2023-06-19T05:54:33;99259.31;;;18.41;100.00
14253;BME280;7210;51.502;10.722;2023-06-19T05:57:00;99253.09;;;18.46;100.00
14253;BME280;7210;51.502;10.722;2023-06-19T05:59:27;99254.91;;;18.50;100.00
14253;BME280;7210;51.502;10.722;2023-06-19T06:01:54;99252.69;;;18.57;100.00
14253;BME280;7210;51.502;10.722;2023-06-19T06:04:26;99250.72;;;18.63;100.00
14253;BME280;7210;51.502;10.722;2023-06-19T06:06:53;99260.00;;;18.70;100.00
14253;BME280;7210;51.502;10.722;2023-06-19T06:09:21;99255.31;;;18.81;100.00
14253;BME280;7210;51.502;10.722;2023-06-19T06:11:48;99261.91;;;18.88;100.00
14253;BME280;7210;51.502;10.722;2023-06-19T06:14:15;99256.84;;;19.05;100.00
14253;BME280;7210;51.502;10.722;2023-06-19T06:16:43;99245.34;;;19.23;100.00
14253;BME280;7210;51.502;10.722;2023-06-19T06:19:10;99238.38;;;19.41;98.63
14253;BME280;7210;51.502;10.722;2023-06-19T06:21:37;99241.59;;;19.56;97.37
14253;BME280;7210;51.502;10.722;2023-06-19T06:24:05;99257.16;;;19.72;95.91
14253;BME280;7210;51.502;10.722;2023-06-19T06:26:33;99249.66;;;19.88;94.81
14253;BME280;7210;51.502;10.722;2023-06-19T06:29:01;99271.94;;;20.02;93.60
14253;BME280;7210;51.502;10.722;2023-06-19T06:31:28;99273.97;;;20.10;92.09
14253;BME280;7210;51.502;10.722;2023-06-19T06:33:55;99295.78;;;20.22;90.88
14253;BME280;7210;51.502;10.722;2023-06-19T06:36:22;99307.22;;;20.27;89.29
14253;BME280;7210;51.502;10.722;2023-06-19T06:38:50;99319.78;;;20.45;87.61
14253;BME280;7210;51.502;10.722;2023-06-19T06:41:18;99316.69;;;20.52;85.48
14253;BME280;7210;51.502;10.722;2023-06-19T06:43:46;99340.28;;;20.55;84.32
14253;BME280;7210;51.502;10.722;2023-06-19T06:46:13;99353.63;;;20.60;83.23
14253;BME280;7210;51.502;10.722;2023-06-19T06:48:41;99372.44;;;20.60;82.60
14253;BME280;7210;51.502;10.722;2023-06-19T06:51:08;99375.22;;;20.55;82.07
14253;BME280;7210;51.502;10.722;2023-06-19T06:53:36;99406.56;;;20.59;81.84
14253;BME280;7210;51.502;10.722;2023-06-19T06:56:03;99419.63;;;20.66;80.96
14253;BME280;7210;51.502;10.722;2023-06-19T06:58:30;99455.56;;;20.70;81.45
14253;BME280;7210;51.502;10.722;2023-06-19T07:00:59;99470.50;;;20.76;80.87
14253;BME280;7210;51.502;10.722;2023-06-19T07:03:26;99487.03;;;20.83;80.58
14253;BME280;7210;51.502;10.722;2023-06-19T07:05:55;99489.66;;;20.88;80.04
14253;BME280;7210;51.502;10.722;2023-06-19T07:08:23;99507.63;;;20.92;79.50
14253;BME280;7210;51.502;10.722;2023-06-19T07:10:50;99510.59;;;20.91;79.48
14253;BME280;7210;51.502;10.722;2023-06-19T07:13:18;99537.88;;;20.98;79.37
14253;BME280;7210;51.502;10.722;2023-06-19T07:15:45;99535.09;;;21.03;78.98
14253;BME280;7210;51.502;10.722;2023-06-19T07:18:13;99545.50;;;21.09;78.04
14253;BME280;7210;51.502;10.722;2023-06-19T07:20:41;99564.88;;;21.06;78.18
14253;BME280;7210;51.502;10.722;2023-06-19T07:23:09;99579.13;;;21.07;78.13
14253;BME280;7210;51.502;10.722;2023-06-19T07:25:38;99594.69;;;21.10;78.33
14253;BME280;7210;51.502;10.722;2023-06-19T07:28:08;99600.88;;;21.24;77.80
14253;BME280;7210;51.502;10.722;2023-06-19T07:30:35;99591.72;;;21.25;77.17
14253;BME280;7210;51.502;10.722;2023-06-19T07:33:02;99612.56;;;21.33;77.09
14253;BME280;7210;51.502;10.722;2023-06-19T07:35:31;99614.06;;;21.39;76.82
14253;BME280;7210;51.502;10.722;2023-06-19T07:37:58;99619.94;;;21.41;76.68
14253;BME280;7210;51.502;10.722;2023-06-19T07:40:25;99619.25;;;21.49;76.21
14253;BME280;7210;51.502;10.722;2023-06-19T07:42:56;99625.94;;;21.51;76.09
14253;BME280;7210;51.502;10.722;2023-06-19T07:45:23;99632.44;;;21.64;75.70
14253;BME280;7210;51.502;10.722;2023-06-19T07:47:54;99632.09;;;21.70;75.16
14253;BME280;7210;51.502;10.722;2023-06-19T07:50:26;99634.47;;;21.72;74.55
14253;BME280;7210;51.502;10.722;2023-06-19T07:52:54;99646.66;;;21.83;74.20
14253;BME280;7210;51.502;10.722;2023-06-19T07:55:21;99654.53;;;21.93;73.99
14253;BME280;7210;51.502;10.722;2023-06-19T07:57:49;99685.47;;;22.09;74.10
14253;BME280;7210;51.502;10.722;2023-06-19T08:00:19;99688.34;;;22.26;73.80
14253;BME280;7210;51.502;10.722;2023-06-19T08:02:46;99690.53;;;22.37;73.45
14253;BME280;7210;51.502;10.722;2023-06-19T08:05:14;99706.03;;;22.59;72.95
14253;BME280;7210;51.502;10.722;2023-06-19T08:07:41;99705.53;;;22.70;72.69
14253;BME280;7210;51.502;10.722;2023-06-19T08:10:10;99721.53;;;22.89;72.15
14253;BME280;7210;51.502;10.722;2023-06-19T08:12:37;99713.34;;;22.94;71.78
14253;BME280;7210;51.502;10.722;2023-06-19T08:15:06;99732.84;;;23.13;71.04
14253;BME280;7210;51.502;10.722;2023-06-19T08:17:33;99714.19;;;23.16;70.14
14253;BME280;7210;51.502;10.722;2023-06-19T08:20:01;99702.63;;;23.02;69.47
14253;BME280;7210;51.502;10.722;2023-06-19T08:22:31;99753.59;;;23.17;69.52
14253;BME280;7210;51.502;10.722;2023-06-19T08:24:58;99773.91;;;23.37;69.44
14253;BME280;7210;51.502;10.722;2023-06-19T08:27:26;99784.84;;;23.54;69.51
14253;BME280;7210;51.502;10.722;2023-06-19T08:29:54;99765.94;;;23.54;68.67
14253;BME280;7210;51.502;10.722;2023-06-19T08:32:21;99793.50;;;23.86;68.15
14253;BME280;7210;51.502;10.722;2023-06-19T08:34:48;99763.19;;;23.97;67.04
14253;BME280;7210;51.502;10.722;2023-06-19T08:37:17;99765.44;;;24.34;65.12
14253;BME280;7210;51.502;10.722;2023-06-19T08:39:44;99769.47;;;24.45;64.38
14253;BME280;7210;51.502;10.722;2023-06-19T08:42:12;99791.53;;;24.69;63.27
14253;BME280;7210;51.502;10.722;2023-06-19T08:44:40;99768.84;;;24.48;62.91
14253;BME280;7210;51.502;10.722;2023-06-19T08:47:08;99802.88;;;24.49;63.14
14253;BME280;7210;51.502;10.722;2023-06-19T08:49:39;99811.31;;;24.48;63.05
14253;BME280;7210;51.502;10.722;2023-06-19T08:52:07;99822.94;;;24.48;62.81
14253;BME280;7210;51.502;10.722;2023-06-19T08:54:34;99831.13;;;24.65;62.69
14253;BME280;7210;51.502;10.722;2023-06-19T08:57:10;99854.47;;;24.83;62.49
14253;BME280;7210;51.502;10.722;2023-06-19T08:59:38;99838.88;;;24.97;61.76
14253;BME280;7210;51.502;10.722;2023-06-19T09:02:06;99809.41;;;24.87;60.73
14253;BME280;7210;51.502;10.722;2023-06-19T09:04:34;99798.88;;;24.77;60.61
14253;BME280;7210;51.502;10.722;2023-06-19T09:07:03;99818.94;;;24.85;60.56
14253;BME280;7210;51.502;10.722;2023-06-19T09:09:45;99821.47;;;24.81;60.68
14253;BME280;7210;51.502;10.722;2023-06-19T09:12:14;99811.31;;;24.87;60.38
14253;BME280;7210;51.502;10.722;2023-06-19T09:14:45;99827.78;;;25.07;59.92
14253;BME280;7210;51.502;10.722;2023-06-19T09:17:21;99855.69;;;25.33;59.24
14253;BME280;7210;51.502;10.722;2023-06-19T09:19:52;99875.78;;;25.49;59.66
14253;BME280;7210;51.502;10.722;2023-06-19T09:22:22;99858.94;;;25.69;58.80
14253;BME280;7210;51.502;10.722;2023-06-19T09:24:50;99846.16;;;25.78;58.73
14253;BME280;7210;51.502;10.722;2023-06-19T09:27:19;99819.22;;;25.82;57.90
14253;BME280;7210;51.502;10.722;2023-06-19T09:29:49;99853.97;;;26.05;57.33
14253;BME280;7210;51.502;10.722;2023-06-19T09:32:23;99865.09;;;26.21;57.21
14253;BME280;7210;51.502;10.722;2023-06-19T09:34:54;99854.41;;;26.24;56.52
14253;BME280;7210;51.502;10.722;2023-06-19T09:37:24;99854.38;;;26.41;55.98
14253;BME280;7210;51.502;10.722;2023-06-19T09:39:57;99867.09;;;26.49;55.92
14253;BME280;7210;51.502;10.722;2023-06-19T09:42:29;99877.81;;;26.54;56.42
14253;BME280;7210;51.502;10.722;2023-06-19T09:45:04;99867.38;;;26.65;55.76
14253;BME280;7210;51.502;10.722;2023-06-19T09:47:38;99872.13;;;26.76;55.44
14253;BME280;7210;51.502;10.722;2023-06-19T09:50:07;99833.97;;;26.73;55.07
14253;BME280;7210;51.502;10.722;2023-06-19T09:52:34;99866.00;;;26.88;54.86
14253;BME280;7210;51.502;10.722;2023-06-19T09:55:10;99870.28;;;26.97;54.83
14253;BME280;7210;51.502;10.722;2023-06-19T09:57:40;99833.09;;;26.89;53.72
14253;BME280;7210;51.502;10.722;2023-06-19T10:00:10;99873.28;;;27.04;54.44
14253;BME280;7210;51.502;10.722;2023-06-19T10:02:41;99876.94;;;27.08;54.49
14253;BME280;7210;51.502;10.722;2023-06-19T10:05:08;99904.34;;;27.24;54.29
14253;BME280;7210;51.502;10.722;2023-06-19T10:07:41;99872.34;;;27.29;53.83
14253;BME280;7210;51.502;10.722;2023-06-19T10:10:11;99858.19;;;27.44;52.82
14253;BME280;7210;51.502;10.722;2023-06-19T10:12:41;99845.13;;;27.38;52.31
14253;BME280;7210;51.502;10.722;2023-06-19T10:15:16;99855.59;;;27.27;52.57
14253;BME280;7210;51.502;10.722;2023-06-19T10:17:48;99887.88;;;27.49;52.46
14253;BME280;7210;51.502;10.722;2023-06-19T10:20:25;99854.16;;;27.50;51.40
14253;BME280;7210;51.502;10.722;2023-06-19T10:23:01;99863.44;;;27.49;51.79
14253;BME280;7210;51.502;10.722;2023-06-19T10:25:31;99885.81;;;27.46;52.38
14253;BME280;7210;51.502;10.722;2023-06-19T10:27:59;99888.88;;;27.65;51.77
14253;BME280;7210;51.502;10.722;2023-06-19T10:30:27;99939.25;;;27.92;52.55
14253;BME280;7210;51.502;10.722;2023-06-19T10:32:56;99953.09;;;28.19;52.30
14253;BME280;7210;51.502;10.722;2023-06-19T10:35:24;99913.09;;;28.52;50.84
14253;BME280;7210;51.502;10.722;2023-06-19T10:37:51;99865.91;;;28.48;49.35
14253;BME280;7210;51.502;10.722;2023-06-19T10:40:18;99886.78;;;28.56;49.69
14253;BME280;7210;51.502;10.722;2023-06-19T10:42:46;99892.25;;;28.68;49.68
14253;BME280;7210;51.502;10.722;2023-06-19T10:45:15;99905.53;;;28.81;49.23
14253;BME280;7210;51.502;10.722;2023-06-19T10:47:46;99883.56;;;28.98;48.62
14253;BME280;7210;51.502;10.722;2023-06-19T10:50:16;99896.16;;;29.03;48.77
14253;BME280;7210;51.502;10.722;2023-06-19T10:52:44;99867.09;;;29.19;46.95
14253;BME280;7210;51.502;10.722;2023-06-19T10:55:13;99932.47;;;29.43;47.99
14253;BME280;7210;51.502;10.722;2023-06-19T10:57:45;99898.19;;;29.42;47.72
14253;BME280;7210;51.502;10.722;2023-06-19T11:00:24;99903.59;;;29.66;47.42
14253;BME280;7210;51.502;10.722;2023-06-19T11:02:52;99891.06;;;29.77;46.55
14253;BME280;7210;51.502;10.722;2023-06-19T11:05:25;99934.97;;;30.11;46.82
14253;BME280;7210;51.502;10.722;2023-06-19T11:07:55;99916.78;;;30.15;47.16
14253;BME280;7210;51.502;10.722;2023-06-19T11:10:24;99879.72;;;30.14;46.84
14253;BME280;7210;51.502;10.722;2023-06-19T11:12:54;99901.97;;;30.16;47.27
14253;BME280;7210;51.502;10.722;2023-06-19T11:15:29;99850.41;;;30.27;46.00
14253;BME280;7210;51.502;10.722;2023-06-19T11:17:56;99921.66;;;30.37;47.33
14253;BME280;7210;51.502;10.722;2023-06-19T11:20:25;99889.44;;;30.43;46.99
14253;BME280;7210;51.502;10.722;2023-06-19T11:22:57;99877.84;;;30.61;46.13
14253;BME280;7210;51.502;10.722;2023-06-19T11:25:35;99820.91;;;30.48;44.89
14253;BME280;7210;51.502;10.722;2023-06-19T11:28:03;99806.47;;;30.32;44.76
14253;BME280;7210;51.502;10.722;2023-06-19T11:30:32;99789.28;;;30.16;44.76
14253;BME280;7210;51.502;10.722;2023-06-19T11:32:59;99780.59;;;29.98;44.76
14253;BME280;7210;51.502;10.722;2023-06-19T11:35:34;99849.84;;;29.94;46.23
14253;BME280;7210;51.502;10.722;2023-06-19T11:38:08;99768.44;;;29.80;44.97
14253;BME280;7210;51.502;10.722;2023-06-19T11:40:40;99781.81;;;29.85;44.95
14253;BME280;7210;51.502;10.722;2023-06-19T11:43:08;99834.56;;;30.05;45.23
14253;BME280;7210;51.502;10.722;2023-06-19T11:45:50;99836.38;;;30.28;44.65
14253;BME280;7210;51.502;10.722;2023-06-19T11:48:26;99843.47;;;30.45;44.53
14253;BME280;7210;51.502;10.722;2023-06-19T11:50:55;99844.19;;;30.42;45.07
14253;BME280;7210;51.502;10.722;2023-06-19T11:53:24;99813.97;;;30.35;44.50
14253;BME280;7210;51.502;10.722;2023-06-19T11:55:52;99785.25;;;30.25;44.04
14253;BME280;7210;51.502;10.722;2023-06-19T11:58:19;99836.84;;;30.30;44.93
14253;BME280;7210;51.502;10.722;2023-06-19T12:00:47;99814.03;;;30.54;43.86
14253;BME280;7210;51.502;10.722;2023-06-19T12:03:15;99878.47;;;30.86;44.64
14253;BME280;7210;51.502;10.722;2023-06-19T12:05:42;99871.47;;;31.35;43.26
14253;BME280;7210;51.502;10.722;2023-06-19T12:08:11;99885.81;;;31.66;43.20
14253;BME280;7210;51.502;10.722;2023-06-19T12:10:38;99874.53;;;31.87;42.54
14253;BME280;7210;51.502;10.722;2023-06-19T12:13:08;99822.81;;;31.44;42.96
14253;BME280;7210;51.502;10.722;2023-06-19T12:15:35;99795.34;;;30.87;43.55
14253;BME280;7210;51.502;10.722;2023-06-19T12:18:02;99768.75;;;30.53;43.18
14253;BME280;7210;51.502;10.722;2023-06-19T12:20:29;99783.13;;;30.34;43.81
14253;BME280;7210;51.502;10.722;2023-06-19T12:22:56;99795.88;;;30.15;44.59
14253;BME280;7210;51.502;10.722;2023-06-19T12:25:25;99780.69;;;30.02;44.73
14253;BME280;7210;51.502;10.722;2023-06-19T12:27:52;99835.94;;;30.11;45.58
14253;BME280;7210;51.502;10.722;2023-06-19T12:30:19;99863.09;;;30.50;45.03
14253;BME280;7210;51.502;10.722;2023-06-19T12:32:47;99871.34;;;30.66;44.94
14253;BME280;7210;51.502;10.722;2023-06-19T12:35:15;99890.53;;;30.85;45.16
14253;BME280;7210;51.502;10.722;2023-06-19T12:37:44;99888.06;;;30.95;44.86
14253;BME280;7210;51.502;10.722;2023-06-19T12:40:11;99879.69;;;31.04;44.31
14253;BME280;7210;51.502;10.722;2023-06-19T12:42:51;99883.47;;;31.15;44.67
14253;BME280;7210;51.502;10.722;2023-06-19T12:45:20;99829.34;;;31.05;43.78
14253;BME280;7210;51.502;10.722;2023-06-19T12:48:02;99893.28;;;31.16;44.98
14253;BME280;7210;51.502;10.722;2023-06-19T12:50:29;99844.50;;;31.18;44.17
14253;BME280;7210;51.502;10.722;2023-06-19T12:52:56;99837.66;;;30.93;44.71
14253;BME280;7210;51.502;10.722;2023-06-19T12:55:24;99843.66;;;30.83;45.48
14253;BME280;7210;51.502;10.722;2023-06-19T12:57:57;99850.66;;;31.15;44.04
14253;BME280;7210;51.502;10.722;2023-06-19T13:00:24;99921.63;;;31.61;44.44
14253;BME280;7210;51.502;10.722;2023-06-19T13:02:56;99895.34;;;32.10;42.80
14253;BME280;7210;51.502;10.722;2023-06-19T13:05:26;99826.44;;;32.05;41.72
14253;BME280;7210;51.502;10.722;2023-06-19T13:08:15;99846.28;;;32.02;42.74
14253;BME280;7210;51.502;10.722;2023-06-19T13:10:42;99828.28;;;32.01;42.07
14253;BME280;7210;51.502;10.722;2023-06-19T13:13:11;99811.88;;;31.63;43.20